sensor_id;sensor_type;location;lat;lon;timestamp;P1;durP1;ratioP1;P2;durP2;ratioP2
37303;SDS011;23188;51.188;16.374;2022-12-07T00:02:07;2.50;;;2.15;;
37303;SDS011;23188;51.188;16.374;2022-12-07T00:06:10;2.42;;;2.22;;
37303;SDS011;23188;51.188;16.374;2022-12-07T00:10:14;5.05;;;2.67;;
37303;SDS011;23188;51.188;16.374;2022-12-07T00:14:16;2.85;;;2.15;;
37303;SDS011;23188;51.188;16.374;2022-12-07T00:18:19;4.53;;;2.02;;
37303;SDS011;23188;51.188;16.374;2022-12-07T00:22:20;2.92;;;1.40;;
37303;SDS011;23188;51.188;16.374;2022-12-07T00:26:26;3.42;;;2.22;;
37303;SDS011;23188;51.188;16.374;2022-12-07T00:30:27;1.50;;;1.40;;
37303;SDS011;23188;51.188;16.374;2022-12-07T00:34:29;1.47;;;1.37;;
37303;SDS011;23188;51.188;16.374;2022-12-07T00:38:31;1.45;;;1.27;;
37303;SDS011;23188;51.188;16.374;2022-12-07T00:42:34;2.42;;;1.95;;
37303;SDS011;23188;51.188;16.374;2022-12-07T00:46:36;4.60;;;1.57;;
37303;SDS011;23188;51.188;16.374;2022-12-07T00:50:37;3.87;;;3.25;;
37303;SDS011;23188;51.188;16.374;2022-12-07T00:54:39;1.85;;;1.05;;
37303;SDS011;23188;51.188;16.374;2022-12-07T00:58:40;1.50;;;1.40;;
37303;SDS011;23188;51.188;16.374;2022-12-07T01:02:42;2.47;;;2.00;;
37303;SDS011;23188;51.188;16.374;2022-12-07T01:06:43;1.25;;;0.72;;
37303;SDS011;23188;51.188;16.374;2022-12-07T01:10:45;1.37;;;1.00;;
37303;SDS011;23188;51.188;16.374;2022-12-07T01:14:46;1.42;;;0.80;;
37303;SDS011;23188;51.188;16.374;2022-12-07T01:18:49;2.90;;;1.20;;
37303;SDS011;23188;51.188;16.374;2022-12-07T01:22:52;2.58;;;1.15;;
37303;SDS011;23188;51.188;16.374;2022-12-07T01:26:53;1.10;;;1.02;;
37303;SDS011;23188;51.188;16.374;2022-12-07T01:31:04;1.62;;;1.07;;
37303;SDS011;23188;51.188;16.374;2022-12-07T01:35:12;2.00;;;1.75;;
37303;SDS011;23188;51.188;16.374;2022-12-07T01:39:13;0.93;;;0.80;;
37303;SDS011;23188;51.188;16.374;2022-12-07T01:43:17;0.90;;;0.50;;
37303;SDS011;23188;51.188;16.374;2022-12-07T01:47:19;1.47;;;1.00;;
37303;SDS011;23188;51.188;16.374;2022-12-07T01:51:21;1.27;;;1.12;;
37303;SDS011;23188;51.188;16.374;2022-12-07T01:55:22;2.20;;;0.62;;
37303;SDS011;23188;51.188;16.374;2022-12-07T01:59:24;3.65;;;1.37;;
37303;SDS011;23188;51.188;16.374;2022-12-07T02:03:34;0.82;;;0.53;;
37303;SDS011;23188;51.188;16.374;2022-12-07T02:07:38;1.42;;;0.88;;
37303;SDS011;23188;51.188;16.374;2022-12-07T02:11:40;1.47;;;1.07;;
37303;SDS011;23188;51.188;16.374;2022-12-07T02:15:56;1.37;;;0.75;;
37303;SDS011;23188;51.188;16.374;2022-12-07T02:20:23;1.12;;;0.90;;
37303;SDS011;23188;51.188;16.374;2022-12-07T02:24:47;1.07;;;1.00;;
37303;SDS011;23188;51.188;16.374;2022-12-07T02:33:24;1.32;;;1.22;;
37303;SDS011;23188;51.188;16.374;2022-12-07T02:42:11;1.35;;;1.00;;
37303;SDS011;23188;51.188;16.374;2022-12-07T02:46:23;1.32;;;1.22;;
37303;SDS011;23188;51.188;16.374;2022-12-07T02:50:33;0.82;;;0.82;;
37303;SDS011;23188;51.188;16.374;2022-12-07T02:54:35;1.67;;;1.55;;
37303;SDS011;23188;51.188;16.374;2022-12-07T03:03:06;1.57;;;1.42;;
37303;SDS011;23188;51.188;16.374;2022-12-07T03:07:21;2.45;;;1.20;;
37303;SDS011;23188;51.188;16.374;2022-12-07T03:11:52;3.08;;;1.50;;
37303;SDS011;23188;51.188;16.374;2022-12-07T03:20:19;1.20;;;1.10;;
37303;SDS011;23188;51.188;16.374;2022-12-07T03:24:24;1.42;;;1.32;;
37303;SDS011;23188;51.188;16.374;2022-12-07T03:28:31;1.45;;;1.12;;
37303;SDS011;23188;51.188;16.374;2022-12-07T03:37:26;1.72;;;1.12;;
37303;SDS011;23188;51.188;16.374;2022-12-07T03:41:35;1.30;;;1.17;;
37303;SDS011;23188;51.188;16.374;2022-12-07T03:45:42;1.72;;;1.60;;
37303;SDS011;23188;51.188;16.374;2022-12-07T03:50:06;2.52;;;1.65;;
37303;SDS011;23188;51.188;16.374;2022-12-07T03:54:19;3.50;;;2.75;;
37303;SDS011;23188;51.188;16.374;2022-12-07T03:58:34;3.60;;;3.05;;
37303;SDS011;23188;51.188;16.374;2022-12-07T04:02:36;4.53;;;3.50;;
37303;SDS011;23188;51.188;16.374;2022-12-07T04:06:38;5.00;;;4.35;;
37303;SDS011;23188;51.188;16.374;2022-12-07T04:10:39;4.22;;;2.87;;
37303;SDS011;23188;51.188;16.374;2022-12-07T04:14:41;6.17;;;5.10;;
37303;SDS011;23188;51.188;16.374;2022-12-07T04:18:42;5.70;;;4.08;;
37303;SDS011;23188;51.188;16.374;2022-12-07T04:22:43;4.25;;;2.85;;
37303;SDS011;23188;51.188;16.374;2022-12-07T04:26:44;5.00;;;4.28;;
37303;SDS011;23188;51.188;16.374;2022-12-07T04:30:46;4.72;;;2.70;;
37303;SDS011;23188;51.188;16.374;2022-12-07T04:34:48;5.55;;;4.37;;
37303;SDS011;23188;51.188;16.374;2022-12-07T04:38:49;14.85;;;6.10;;
37303;SDS011;23188;51.188;16.374;2022-12-07T04:42:50;14.63;;;8.23;;
37303;SDS011;23188;51.188;16.374;2022-12-07T04:46:51;16.48;;;10.38;;
37303;SDS011;23188;51.188;16.374;2022-12-07T04:50:53;18.70;;;11.30;;
37303;SDS011;23188;51.188;16.374;2022-12-07T04:54:55;15.43;;;10.48;;
37303;SDS011;23188;51.188;16.374;2022-12-07T04:58:56;13.98;;;9.50;;
37303;SDS011;23188;51.188;16.374;2022-12-07T05:02:57;13.93;;;8.70;;
37303;SDS011;23188;51.188;16.374;2022-12-07T05:06:59;22.62;;;12.03;;
37303;SDS011;23188;51.188;16.374;2022-12-07T05:11:00;14.40;;;9.80;;
37303;SDS011;23188;51.188;16.374;2022-12-07T05:15:03;18.37;;;10.55;;
37303;SDS011;23188;51.188;16.374;2022-12-07T05:19:06;11.85;;;9.45;;
37303;SDS011;23188;51.188;16.374;2022-12-07T05:23:07;14.35;;;10.40;;
37303;SDS011;23188;51.188;16.374;2022-12-07T05:27:09;16.42;;;10.98;;
37303;SDS011;23188;51.188;16.374;2022-12-07T05:31:10;19.75;;;12.45;;
37303;SDS011;23188;51.188;16.374;2022-12-07T05:35:11;18.00;;;12.53;;
37303;SDS011;23188;51.188;16.374;2022-12-07T05:39:13;15.08;;;10.40;;
37303;SDS011;23188;51.188;16.374;2022-12-07T05:43:14;16.12;;;11.70;;
37303;SDS011;23188;51.188;16.374;2022-12-07T05:47:15;20.27;;;12.10;;
37303;SDS011;23188;51.188;16.374;2022-12-07T05:51:17;19.32;;;10.75;;
37303;SDS011;23188;51.188;16.374;2022-12-07T05:55:19;19.37;;;9.88;;
37303;SDS011;23188;51.188;16.374;2022-12-07T05:59:20;21.42;;;11.80;;
37303;SDS011;23188;51.188;16.374;2022-12-07T06:03:25;13.45;;;9.93;;
37303;SDS011;23188;51.188;16.374;2022-12-07T06:07:26;12.43;;;10.65;;
37303;SDS011;23188;51.188;16.374;2022-12-07T06:11:27;15.63;;;10.55;;
37303;SDS011;23188;51.188;16.374;2022-12-07T06:15:47;15.98;;;10.88;;
37303;SDS011;23188;51.188;16.374;2022-12-07T06:19:48;14.73;;;9.50;;
37303;SDS011;23188;51.188;16.374;2022-12-07T06:23:50;13.28;;;10.18;;
37303;SDS011;23188;51.188;16.374;2022-12-07T06:27:51;11.40;;;8.35;;
37303;SDS011;23188;51.188;16.374;2022-12-07T06:31:52;13.50;;;9.70;;
37303;SDS011;23188;51.188;16.374;2022-12-07T06:35:54;15.50;;;10.05;;
37303;SDS011;23188;51.188;16.374;2022-12-07T06:39:55;14.65;;;9.18;;
37303;SDS011;23188;51.188;16.374;2022-12-07T06:43:57;15.68;;;10.72;;
37303;SDS011;23188;51.188;16.374;2022-12-07T06:47:58;12.18;;;9.55;;
37303;SDS011;23188;51.188;16.374;2022-12-07T06:51:59;17.42;;;10.25;;
37303;SDS011;23188;51.188;16.374;2022-12-07T06:56:00;12.82;;;9.68;;
37303;SDS011;23188;51.188;16.374;2022-12-07T07:00:02;15.38;;;10.43;;
37303;SDS011;23188;51.188;16.374;2022-12-07T07:04:05;16.25;;;11.05;;
37303;SDS011;23188;51.188;16.374;2022-12-07T07:08:06;12.00;;;9.93;;
37303;SDS011;23188;51.188;16.374;2022-12-07T07:12:07;14.40;;;9.80;;
37303;SDS011;23188;51.188;16.374;2022-12-07T07:16:08;14.75;;;9.18;;
37303;SDS011;23188;51.188;16.374;2022-12-07T07:20:11;15.10;;;9.25;;
37303;SDS011;23188;51.188;16.374;2022-12-07T07:24:13;13.38;;;9.25;;
37303;SDS011;23188;51.188;16.374;2022-12-07T07:28:14;15.03;;;11.25;;
37303;SDS011;23188;51.188;16.374;2022-12-07T07:32:16;16.62;;;10.78;;
37303;SDS011;23188;51.188;16.374;2022-12-07T07:36:17;17.42;;;11.78;;
37303;SDS011;23188;51.188;16.374;2022-12-07T07:40:18;14.80;;;9.95;;
37303;SDS011;23188;51.188;16.374;2022-12-07T07:44:20;15.63;;;10.90;;
37303;SDS011;23188;51.188;16.374;2022-12-07T07:48:22;13.22;;;8.88;;
37303;SDS011;23188;51.188;16.374;2022-12-07T07:52:25;15.68;;;11.93;;
37303;SDS011;23188;51.188;16.374;2022-12-07T07:56:26;13.53;;;9.58;;
37303;SDS011;23188;51.188;16.374;2022-12-07T08:00:28;16.10;;;11.53;;
37303;SDS011;23188;51.188;16.374;2022-12-07T08:04:29;13.55;;;7.90;;
37303;SDS011;23188;51.188;16.374;2022-12-07T08:08:30;12.13;;;8.38;;
37303;SDS011;23188;51.188;16.374;2022-12-07T08:12:35;12.70;;;9.55;;
37303;SDS011;23188;51.188;16.374;2022-12-07T08:17:01;14.70;;;10.50;;
37303;SDS011;23188;51.188;16.374;2022-12-07T08:21:03;12.80;;;8.95;;
37303;SDS011;23188;51.188;16.374;2022-12-07T08:25:05;16.20;;;10.25;;
37303;SDS011;23188;51.188;16.374;2022-12-07T08:29:07;14.43;;;9.93;;
37303;SDS011;23188;51.188;16.374;2022-12-07T08:33:08;13.95;;;10.48;;
37303;SDS011;23188;51.188;16.374;2022-12-07T08:37:10;14.80;;;11.10;;
37303;SDS011;23188;51.188;16.374;2022-12-07T08:41:12;13.90;;;8.45;;
37303;SDS011;23188;51.188;16.374;2022-12-07T08:45:13;14.40;;;9.60;;
37303;SDS011;23188;51.188;16.374;2022-12-07T08:49:23;13.70;;;8.10;;
37303;SDS011;23188;51.188;16.374;2022-12-07T08:53:28;14.78;;;9.28;;
37303;SDS011;23188;51.188;16.374;2022-12-07T08:57:30;12.95;;;9.65;;
37303;SDS011;23188;51.188;16.374;2022-12-07T09:01:35;13.43;;;8.10;;
37303;SDS011;23188;51.188;16.374;2022-12-07T09:05:36;12.35;;;8.95;;
37303;SDS011;23188;51.188;16.374;2022-12-07T09:09:37;10.32;;;6.95;;
37303;SDS011;23188;51.188;16.374;2022-12-07T09:13:38;9.50;;;7.33;;
37303;SDS011;23188;51.188;16.374;2022-12-07T09:17:39;12.45;;;8.23;;
37303;SDS011;23188;51.188;16.374;2022-12-07T09:21:41;9.95;;;6.78;;
37303;SDS011;23188;51.188;16.374;2022-12-07T09:25:42;12.18;;;7.28;;
37303;SDS011;23188;51.188;16.374;2022-12-07T09:29:43;7.60;;;6.80;;
37303;SDS011;23188;51.188;16.374;2022-12-07T09:33:44;8.63;;;6.33;;
37303;SDS011;23188;51.188;16.374;2022-12-07T09:37:46;7.97;;;6.55;;
37303;SDS011;23188;51.188;16.374;2022-12-07T09:41:47;7.65;;;6.12;;
37303;SDS011;23188;51.188;16.374;2022-12-07T09:45:50;9.53;;;5.85;;
37303;SDS011;23188;51.188;16.374;2022-12-07T09:49:55;8.08;;;5.83;;
37303;SDS011;23188;51.188;16.374;2022-12-07T09:54:01;8.60;;;5.47;;
37303;SDS011;23188;51.188;16.374;2022-12-07T09:58:03;7.62;;;5.83;;
37303;SDS011;23188;51.188;16.374;2022-12-07T10:02:21;8.45;;;6.20;;
37303;SDS011;23188;51.188;16.374;2022-12-07T10:06:35;9.45;;;6.25;;
37303;SDS011;23188;51.188;16.374;2022-12-07T10:10:36;6.75;;;5.90;;
37303;SDS011;23188;51.188;16.374;2022-12-07T10:14:40;7.92;;;5.67;;
37303;SDS011;23188;51.188;16.374;2022-12-07T10:23:24;6.87;;;4.25;;
37303;SDS011;23188;51.188;16.374;2022-12-07T10:27:26;7.67;;;5.62;;
37303;SDS011;23188;51.188;16.374;2022-12-07T10:31:31;5.87;;;4.60;;
37303;SDS011;23188;51.188;16.374;2022-12-07T10:35:33;6.12;;;4.33;;
37303;SDS011;23188;51.188;16.374;2022-12-07T10:39:55;6.62;;;4.40;;
37303;SDS011;23188;51.188;16.374;2022-12-07T10:43:57;6.75;;;4.45;;
37303;SDS011;23188;51.188;16.374;2022-12-07T10:57:53;4.42;;;4.00;;
37303;SDS011;23188;51.188;16.374;2022-12-07T11:01:55;9.50;;;5.62;;
37303;SDS011;23188;51.188;16.374;2022-12-07T11:19:16;5.12;;;4.62;;
37303;SDS011;23188;51.188;16.374;2022-12-07T11:23:44;6.62;;;4.28;;
37303;SDS011;23188;51.188;16.374;2022-12-07T11:37:00;5.17;;;4.37;;
37303;SDS011;23188;51.188;16.374;2022-12-07T11:41:06;7.58;;;5.83;;
37303;SDS011;23188;51.188;16.374;2022-12-07T11:45:16;6.10;;;4.87;;
37303;SDS011;23188;51.188;16.374;2022-12-07T11:49:37;9.30;;;4.40;;
37303;SDS011;23188;51.188;16.374;2022-12-07T11:54:39;8.98;;;5.22;;
37303;SDS011;23188;51.188;16.374;2022-12-07T11:58:14;5.60;;;4.90;;
37303;SDS011;23188;51.188;16.374;2022-12-07T12:02:43;5.33;;;4.83;;
37303;SDS011;23188;51.188;16.374;2022-12-07T12:06:51;6.83;;;4.42;;
37303;SDS011;23188;51.188;16.374;2022-12-07T12:20:26;7.08;;;5.05;;
37303;SDS011;23188;51.188;16.374;2022-12-07T12:24:46;9.05;;;6.00;;
37303;SDS011;23188;51.188;16.374;2022-12-07T12:29:01;7.78;;;5.12;;
37303;SDS011;23188;51.188;16.374;2022-12-07T12:33:13;8.43;;;6.87;;
37303;SDS011;23188;51.188;16.374;2022-12-07T12:45:51;10.50;;;6.45;;
37303;SDS011;23188;51.188;16.374;2022-12-07T12:50:18;8.28;;;5.00;;
37303;SDS011;23188;51.188;16.374;2022-12-07T12:54:30;10.93;;;8.78;;
37303;SDS011;23188;51.188;16.374;2022-12-07T12:58:36;10.83;;;6.93;;
37303;SDS011;23188;51.188;16.374;2022-12-07T13:03:01;12.82;;;8.43;;
37303;SDS011;23188;51.188;16.374;2022-12-07T13:06:56;6.40;;;5.08;;
37303;SDS011;23188;51.188;16.374;2022-12-07T13:11:15;6.83;;;6.00;;
37303;SDS011;23188;51.188;16.374;2022-12-07T13:15:22;15.72;;;5.25;;
37303;SDS011;23188;51.188;16.374;2022-12-07T13:19:52;7.05;;;4.80;;
37303;SDS011;23188;51.188;16.374;2022-12-07T13:28:02;5.67;;;5.08;;
37303;SDS011;23188;51.188;16.374;2022-12-07T13:32:16;8.28;;;5.30;;
37303;SDS011;23188;51.188;16.374;2022-12-07T13:36:21;5.58;;;4.67;;
37303;SDS011;23188;51.188;16.374;2022-12-07T13:40:26;8.33;;;4.50;;
37303;SDS011;23188;51.188;16.374;2022-12-07T13:44:27;7.00;;;5.62;;
37303;SDS011;23188;51.188;16.374;2022-12-07T13:48:32;7.47;;;5.37;;
37303;SDS011;23188;51.188;16.374;2022-12-07T13:52:43;8.08;;;5.15;;
37303;SDS011;23188;51.188;16.374;2022-12-07T13:56:53;6.30;;;5.05;;
37303;SDS011;23188;51.188;16.374;2022-12-07T14:00:53;6.20;;;4.62;;
37303;SDS011;23188;51.188;16.374;2022-12-07T14:09:23;6.83;;;4.75;;
37303;SDS011;23188;51.188;16.374;2022-12-07T14:17:49;4.33;;;3.92;;
37303;SDS011;23188;51.188;16.374;2022-12-07T14:22:37;5.97;;;5.20;;
37303;SDS011;23188;51.188;16.374;2022-12-07T14:26:34;7.10;;;4.12;;
37303;SDS011;23188;51.188;16.374;2022-12-07T14:30:35;8.80;;;5.22;;
37303;SDS011;23188;51.188;16.374;2022-12-07T14:34:36;7.78;;;5.25;;
37303;SDS011;23188;51.188;16.374;2022-12-07T14:38:37;11.08;;;5.87;;
37303;SDS011;23188;51.188;16.374;2022-12-07T14:42:39;6.25;;;4.80;;
37303;SDS011;23188;51.188;16.374;2022-12-07T14:46:40;6.95;;;4.55;;
37303;SDS011;23188;51.188;16.374;2022-12-07T14:50:45;5.97;;;4.78;;
37303;SDS011;23188;51.188;16.374;2022-12-07T14:54:52;6.70;;;4.65;;
37303;SDS011;23188;51.188;16.374;2022-12-07T14:58:53;5.80;;;4.87;;
37303;SDS011;23188;51.188;16.374;2022-12-07T15:02:55;8.35;;;4.87;;
37303;SDS011;23188;51.188;16.374;2022-12-07T15:06:57;6.40;;;4.60;;
37303;SDS011;23188;51.188;16.374;2022-12-07T15:11:01;8.20;;;5.45;;
37303;SDS011;23188;51.188;16.374;2022-12-07T15:15:03;8.43;;;6.35;;
37303;SDS011;23188;51.188;16.374;2022-12-07T15:19:06;12.07;;;6.85;;
37303;SDS011;23188;51.188;16.374;2022-12-07T15:23:18;7.42;;;6.30;;
37303;SDS011;23188;51.188;16.374;2022-12-07T15:27:19;7.25;;;5.55;;
37303;SDS011;23188;51.188;16.374;2022-12-07T15:31:20;7.53;;;5.65;;
37303;SDS011;23188;51.188;16.374;2022-12-07T15:35:21;8.28;;;5.75;;
37303;SDS011;23188;51.188;16.374;2022-12-07T15:39:25;5.72;;;4.08;;
37303;SDS011;23188;51.188;16.374;2022-12-07T15:43:26;8.25;;;4.95;;
37303;SDS011;23188;51.188;16.374;2022-12-07T15:47:48;7.42;;;4.67;;
37303;SDS011;23188;51.188;16.374;2022-12-07T15:51:49;7.37;;;4.62;;
37303;SDS011;23188;51.188;16.374;2022-12-07T15:55:50;5.40;;;4.85;;
37303;SDS011;23188;51.188;16.374;2022-12-07T15:59:51;7.37;;;5.20;;
37303;SDS011;23188;51.188;16.374;2022-12-07T16:03:54;4.97;;;3.45;;
37303;SDS011;23188;51.188;16.374;2022-12-07T16:07:57;5.08;;;4.05;;
37303;SDS011;23188;51.188;16.374;2022-12-07T16:11:58;3.80;;;3.02;;
37303;SDS011;23188;51.188;16.374;2022-12-07T16:16:04;4.42;;;3.25;;
37303;SDS011;23188;51.188;16.374;2022-12-07T16:20:08;5.72;;;4.25;;
37303;SDS011;23188;51.188;16.374;2022-12-07T16:24:10;5.30;;;3.85;;
37303;SDS011;23188;51.188;16.374;2022-12-07T16:28:13;3.22;;;2.72;;
37303;SDS011;23188;51.188;16.374;2022-12-07T16:32:15;5.25;;;4.17;;
37303;SDS011;23188;51.188;16.374;2022-12-07T16:36:17;4.62;;;4.22;;
37303;SDS011;23188;51.188;16.374;2022-12-07T16:40:19;3.15;;;2.80;;
37303;SDS011;23188;51.188;16.374;2022-12-07T16:44:20;6.45;;;3.67;;
37303;SDS011;23188;51.188;16.374;2022-12-07T16:48:21;7.25;;;4.00;;
37303;SDS011;23188;51.188;16.374;2022-12-07T16:52:23;5.92;;;3.83;;
37303;SDS011;23188;51.188;16.374;2022-12-07T16:56:24;4.80;;;4.30;;
37303;SDS011;23188;51.188;16.374;2022-12-07T17:00:27;6.80;;;3.52;;
37303;SDS011;23188;51.188;16.374;2022-12-07T17:04:28;7.08;;;4.70;;
37303;SDS011;23188;51.188;16.374;2022-12-07T17:08:29;4.17;;;3.05;;
37303;SDS011;23188;51.188;16.374;2022-12-07T17:12:30;5.15;;;2.72;;
37303;SDS011;23188;51.188;16.374;2022-12-07T17:16:31;4.45;;;3.47;;
37303;SDS011;23188;51.188;16.374;2022-12-07T17:20:33;7.55;;;3.87;;
37303;SDS011;23188;51.188;16.374;2022-12-07T17:24:34;6.17;;;3.40;;
37303;SDS011;23188;51.188;16.374;2022-12-07T17:28:36;4.85;;;2.72;;
37303;SDS011;23188;51.188;16.374;2022-12-07T17:32:37;15.23;;;5.03;;
37303;SDS011;23188;51.188;16.374;2022-12-07T17:36:39;7.33;;;4.33;;
37303;SDS011;23188;51.188;16.374;2022-12-07T17:40:41;6.35;;;4.28;;
37303;SDS011;23188;51.188;16.374;2022-12-07T17:44:43;5.35;;;3.00;;
37303;SDS011;23188;51.188;16.374;2022-12-07T17:48:44;4.60;;;3.70;;
37303;SDS011;23188;51.188;16.374;2022-12-07T17:52:45;5.83;;;5.22;;
37303;SDS011;23188;51.188;16.374;2022-12-07T17:57:05;6.97;;;5.00;;
37303;SDS011;23188;51.188;16.374;2022-12-07T18:01:09;7.70;;;6.30;;
37303;SDS011;23188;51.188;16.374;2022-12-07T18:05:10;11.30;;;7.30;;
37303;SDS011;23188;51.188;16.374;2022-12-07T18:09:12;14.05;;;7.03;;
37303;SDS011;23188;51.188;16.374;2022-12-07T18:13:13;16.37;;;9.60;;
37303;SDS011;23188;51.188;16.374;2022-12-07T18:17:32;11.20;;;8.53;;
37303;SDS011;23188;51.188;16.374;2022-12-07T18:21:33;6.47;;;5.00;;
37303;SDS011;23188;51.188;16.374;2022-12-07T18:25:35;10.55;;;5.95;;
37303;SDS011;23188;51.188;16.374;2022-12-07T18:29:36;7.20;;;5.60;;
37303;SDS011;23188;51.188;16.374;2022-12-07T18:33:38;9.38;;;7.03;;
37303;SDS011;23188;51.188;16.374;2022-12-07T18:37:40;9.90;;;5.28;;
37303;SDS011;23188;51.188;16.374;2022-12-07T18:41:42;9.43;;;6.67;;
37303;SDS011;23188;51.188;16.374;2022-12-07T18:45:43;9.25;;;5.55;;
37303;SDS011;23188;51.188;16.374;2022-12-07T18:49:48;13.93;;;6.58;;
37303;SDS011;23188;51.188;16.374;2022-12-07T18:53:49;8.45;;;5.50;;
37303;SDS011;23188;51.188;16.374;2022-12-07T18:57:51;14.23;;;6.90;;
37303;SDS011;23188;51.188;16.374;2022-12-07T19:01:53;7.00;;;5.40;;
37303;SDS011;23188;51.188;16.374;2022-12-07T19:05:55;6.22;;;4.72;;
37303;SDS011;23188;51.188;16.374;2022-12-07T19:09:57;9.20;;;5.30;;
37303;SDS011;23188;51.188;16.374;2022-12-07T19:13:59;9.93;;;5.95;;
37303;SDS011;23188;51.188;16.374;2022-12-07T19:18:00;5.97;;;4.75;;
37303;SDS011;23188;51.188;16.374;2022-12-07T19:22:01;7.35;;;4.70;;
37303;SDS011;23188;51.188;16.374;2022-12-07T19:26:03;7.12;;;6.35;;
37303;SDS011;23188;51.188;16.374;2022-12-07T19:30:05;8.60;;;4.45;;
37303;SDS011;23188;51.188;16.374;2022-12-07T19:34:10;8.65;;;5.08;;
37303;SDS011;23188;51.188;16.374;2022-12-07T19:38:15;6.53;;;5.07;;
37303;SDS011;23188;51.188;16.374;2022-12-07T19:42:16;6.60;;;4.83;;
37303;SDS011;23188;51.188;16.374;2022-12-07T19:46:18;8.35;;;5.25;;
37303;SDS011;23188;51.188;16.374;2022-12-07T19:50:19;9.98;;;5.60;;
37303;SDS011;23188;51.188;16.374;2022-12-07T19:54:21;5.58;;;4.42;;
37303;SDS011;23188;51.188;16.374;2022-12-07T19:58:26;9.73;;;6.45;;
37303;SDS011;23188;51.188;16.374;2022-12-07T20:02:28;12.55;;;6.35;;
37303;SDS011;23188;51.188;16.374;2022-12-07T20:06:29;7.42;;;6.08;;
37303;SDS011;23188;51.188;16.374;2022-12-07T20:10:30;10.80;;;6.30;;
37303;SDS011;23188;51.188;16.374;2022-12-07T20:14:33;9.23;;;6.42;;
37303;SDS011;23188;51.188;16.374;2022-12-07T20:18:35;10.55;;;6.85;;
37303;SDS011;23188;51.188;16.374;2022-12-07T20:22:36;10.82;;;6.28;;
37303;SDS011;23188;51.188;16.374;2022-12-07T20:26:38;8.55;;;6.28;;
37303;SDS011;23188;51.188;16.374;2022-12-07T20:30:51;10.55;;;6.62;;
37303;SDS011;23188;51.188;16.374;2022-12-07T20:34:51;9.10;;;5.83;;
37303;SDS011;23188;51.188;16.374;2022-12-07T20:38:53;10.08;;;6.72;;
37303;SDS011;23188;51.188;16.374;2022-12-07T20:42:55;7.83;;;6.05;;
37303;SDS011;23188;51.188;16.374;2022-12-07T20:46:57;11.05;;;6.87;;
37303;SDS011;23188;51.188;16.374;2022-12-07T20:51:04;11.88;;;7.10;;
37303;SDS011;23188;51.188;16.374;2022-12-07T20:55:06;11.00;;;5.17;;
37303;SDS011;23188;51.188;16.374;2022-12-07T20:59:09;8.13;;;6.08;;
37303;SDS011;23188;51.188;16.374;2022-12-07T21:03:13;7.22;;;5.40;;
37303;SDS011;23188;51.188;16.374;2022-12-07T21:07:14;12.65;;;7.55;;
37303;SDS011;23188;51.188;16.374;2022-12-07T21:11:16;12.07;;;6.65;;
37303;SDS011;23188;51.188;16.374;2022-12-07T21:15:19;15.35;;;10.78;;
37303;SDS011;23188;51.188;16.374;2022-12-07T21:19:20;7.78;;;6.30;;
37303;SDS011;23188;51.188;16.374;2022-12-07T21:23:22;9.98;;;7.25;;
37303;SDS011;23188;51.188;16.374;2022-12-07T21:27:23;7.42;;;5.53;;
37303;SDS011;23188;51.188;16.374;2022-12-07T21:31:24;9.18;;;6.37;;
37303;SDS011;23188;51.188;16.374;2022-12-07T21:35:27;15.53;;;6.47;;
37303;SDS011;23188;51.188;16.374;2022-12-07T21:39:28;10.08;;;7.03;;
37303;SDS011;23188;51.188;16.374;2022-12-07T21:43:29;8.90;;;5.72;;
37303;SDS011;23188;51.188;16.374;2022-12-07T21:47:31;8.70;;;5.67;;
37303;SDS011;23188;51.188;16.374;2022-12-07T21:51:32;9.68;;;6.62;;
37303;SDS011;23188;51.188;16.374;2022-12-07T21:55:38;11.65;;;7.17;;
37303;SDS011;23188;51.188;16.374;2022-12-07T21:59:42;16.10;;;10.03;;
37303;SDS011;23188;51.188;16.374;2022-12-07T22:03:44;12.58;;;8.23;;
37303;SDS011;23188;51.188;16.374;2022-12-07T22:07:46;18.32;;;9.55;;
37303;SDS011;23188;51.188;16.374;2022-12-07T22:11:47;18.45;;;10.23;;
37303;SDS011;23188;51.188;16.374;2022-12-07T22:15:49;16.10;;;10.58;;
37303;SDS011;23188;51.188;16.374;2022-12-07T22:19:50;17.00;;;11.73;;
37303;SDS011;23188;51.188;16.374;2022-12-07T22:23:51;18.17;;;9.10;;
37303;SDS011;23188;51.188;16.374;2022-12-07T22:27:53;14.95;;;9.15;;
37303;SDS011;23188;51.188;16.374;2022-12-07T22:31:54;9.55;;;7.03;;
37303;SDS011;23188;51.188;16.374;2022-12-07T22:35:55;10.55;;;6.85;;
37303;SDS011;23188;51.188;16.374;2022-12-07T22:39:57;10.08;;;6.62;;
37303;SDS011;23188;51.188;16.374;2022-12-07T22:43:59;8.28;;;5.83;;
37303;SDS011;23188;51.188;16.374;2022-12-07T22:48:01;6.28;;;5.25;;
37303;SDS011;23188;51.188;16.374;2022-12-07T22:52:02;7.65;;;5.50;;
37303;SDS011;23188;51.188;16.374;2022-12-07T22:56:04;12.33;;;5.87;;
37303;SDS011;23188;51.188;16.374;2022-12-07T23:00:06;9.58;;;5.42;;
37303;SDS011;23188;51.188;16.374;2022-12-07T23:04:08;14.33;;;5.30;;
37303;SDS011;23188;51.188;16.374;2022-12-07T23:08:10;10.25;;;6.97;;
37303;SDS011;23188;51.188;16.374;2022-12-07T23:12:13;6.42;;;4.95;;
37303;SDS011;23188;51.188;16.374;2022-12-07T23:16:33;9.18;;;6.47;;
37303;SDS011;23188;51.188;16.374;2022-12-07T23:20:34;10.95;;;5.58;;
37303;SDS011;23188;51.188;16.374;2022-12-07T23:24:35;17.20;;;4.83;;
37303;SDS011;23188;51.188;16.374;2022-12-07T23:28:36;12.90;;;5.75;;
37303;SDS011;23188;51.188;16.374;2022-12-07T23:32:39;7.28;;;5.42;;
37303;SDS011;23188;51.188;16.374;2022-12-07T23:36:40;9.73;;;6.10;;
37303;SDS011;23188;51.188;16.374;2022-12-07T23:40:41;10.53;;;6.87;;
37303;SDS011;23188;51.188;16.374;2022-12-07T23:44:42;8.40;;;6.00;;
37303;SDS011;23188;51.188;16.374;2022-12-07T23:48:44;9.60;;;6.87;;
37303;SDS011;23188;51.188;16.374;2022-12-07T23:52:47;13.38;;;7.65;;
37303;SDS011;23188;51.188;16.374;2022-12-07T23:56:48;12.35;;;7.83;;
